createdAt,value
2017-10-06T00:02:57.470Z,21.9
2017-10-06T00:03:58.908Z,22
2017-10-06T00:05:01.037Z,21.9
2017-10-06T00:06:03.203Z,21.8
2017-10-06T00:07:04.664Z,21.9
2017-10-06T00:08:06.105Z,21.9
2017-10-06T00:09:07.901Z,21.8
2017-10-06T00:10:10.033Z,21.9
2017-10-06T00:11:11.830Z,21.9
2017-10-06T00:12:13.623Z,21.9
2017-10-06T00:13:15.754Z,21.9
2017-10-06T00:14:17.884Z,21.9
2017-10-06T00:15:19.682Z,21.9
2017-10-06T00:16:21.811Z,21.9
2017-10-06T00:17:23.943Z,21.9
2017-10-06T00:18:25.738Z,21.9
2017-10-06T00:19:27.511Z,21.9
2017-10-06T00:20:29.306Z,21.9
2017-10-06T00:21:30.768Z,21.9
2017-10-06T00:22:32.565Z,21.9
2017-10-06T00:23:34.710Z,21.9
2017-10-06T00:24:36.516Z,21.9
2017-10-06T00:25:38.315Z,21.9
2017-10-06T00:26:40.445Z,21.9
2017-10-06T00:27:42.224Z,21.9
2017-10-06T00:28:44.019Z,21.9
2017-10-06T00:29:46.151Z,21.9
2017-10-06T00:30:47.949Z,21.9
2017-10-06T00:31:49.743Z,21.8
2017-10-06T00:32:51.519Z,21.9
2017-10-06T00:33:53.313Z,21.9
2017-10-06T00:34:54.754Z,21.9
2017-10-06T00:35:56.527Z,21.9
2017-10-06T00:36:58.324Z,21.8
2017-10-06T00:37:59.764Z,21.8
2017-10-06T00:39:00.868Z,22
2017-10-06T00:40:02.307Z,21.8
2017-10-06T00:41:03.765Z,21.9
2017-10-06T00:42:05.534Z,21.9
2017-10-06T00:43:07.328Z,21.9
2017-10-06T00:44:08.789Z,21.9
2017-10-06T00:45:10.607Z,21.8
2017-10-06T00:46:12.393Z,21.8
2017-10-06T00:47:14.188Z,21.9
2017-10-06T00:48:15.628Z,21.8
2017-10-06T00:49:17.419Z,21.9
2017-10-06T00:50:19.200Z,21.9
2017-10-06T00:51:21.344Z,21.9
2017-10-06T00:52:23.128Z,21.9
2017-10-06T00:53:24.928Z,21.9
2017-10-06T00:54:26.723Z,21.9
2017-10-06T00:55:27.830Z,21.9
2017-10-06T00:56:29.293Z,21.9
2017-10-06T00:57:31.148Z,21.9
2017-10-06T00:58:33.277Z,21.9
2017-10-06T00:59:35.052Z,21.9
2017-10-06T01:00:36.859Z,21.9
2017-10-06T01:01:38.307Z,21.8
2017-10-06T01:02:40.429Z,21.9
2017-10-06T01:03:42.203Z,21.9
2017-10-06T01:04:43.326Z,21.9
2017-10-06T01:05:44.778Z,21.9
2017-10-06T01:06:46.907Z,21.9
2017-10-06T01:07:48.682Z,21.8
2017-10-06T01:08:50.153Z,21.8
2017-10-06T01:09:51.612Z,21.9
2017-10-06T01:10:53.409Z,21.8
2017-10-06T01:11:55.551Z,21.8
2017-10-06T01:12:57.682Z,21.8
2017-10-06T01:13:59.810Z,21.8
2017-10-06T01:15:01.606Z,21.9
2017-10-06T01:16:03.382Z,21.8
2017-10-06T01:17:04.822Z,21.9
2017-10-06T01:18:06.954Z,21.9
2017-10-06T01:19:09.084Z,21.9
2017-10-06T01:20:10.881Z,21.8
2017-10-06T01:21:12.676Z,21.8
2017-10-06T01:22:14.806Z,21.8
2017-10-06T01:23:16.271Z,21.8
2017-10-06T01:24:18.087Z,21.8
2017-10-06T01:25:19.193Z,21.9
2017-10-06T01:26:20.654Z,21.9
2017-10-06T01:27:22.784Z,21.9
2017-10-06T01:28:24.580Z,21.8
2017-10-06T01:29:26.350Z,21.9
2017-10-06T01:30:28.148Z,21.8
2017-10-06T01:31:29.941Z,21.8
2017-10-06T01:32:31.740Z,21.8
2017-10-06T01:33:33.512Z,21.9
2017-10-06T01:34:35.642Z,21.9
2017-10-06T01:35:37.439Z,21.9
2017-10-06T01:36:39.570Z,21.8
2017-10-06T01:37:41.032Z,21.9
2017-10-06T01:38:42.830Z,21.8
2017-10-06T01:39:45.001Z,21.8
2017-10-06T01:40:46.798Z,21.9
2017-10-06T01:41:48.570Z,21.9
2017-10-06T01:42:50.346Z,21.9
2017-10-06T01:43:52.492Z,21.9
2017-10-06T01:44:54.623Z,21.9
2017-10-06T01:45:56.753Z,21.8
2017-10-06T01:46:57.858Z,21.9
2017-10-06T01:47:59.642Z,21.9
2017-10-06T01:49:01.436Z,21.9
2017-10-06T01:50:03.573Z,21.9
2017-10-06T01:51:05.033Z,21.8
2017-10-06T01:52:06.154Z,21.9
2017-10-06T01:53:07.614Z,21.8
2017-10-06T01:54:09.745Z,21.8
2017-10-06T01:55:11.874Z,21.8
2017-10-06T01:56:14.028Z,21.8
2017-10-06T01:57:15.494Z,21.9
2017-10-06T01:58:16.930Z,21.8
2017-10-06T01:59:18.728Z,21.7
2017-10-06T02:00:20.501Z,21.8
2017-10-06T02:01:21.607Z,21.9
2017-10-06T02:02:23.072Z,21.8
2017-10-06T02:03:24.532Z,21.9
2017-10-06T02:04:26.330Z,21.8
2017-10-06T02:05:28.157Z,21.9
2017-10-06T02:06:30.290Z,21.9
2017-10-06T02:07:32.089Z,21.8
2017-10-06T02:08:33.549Z,21.8
2017-10-06T02:09:35.344Z,21.9
2017-10-06T02:10:37.139Z,21.9
2017-10-06T02:11:38.914Z,21.8
2017-10-06T02:12:40.387Z,21.9
2017-10-06T02:13:42.183Z,21.9
2017-10-06T02:14:43.645Z,21.8
2017-10-06T02:15:45.105Z,21.8
2017-10-06T02:16:46.540Z,21.8
2017-10-06T02:17:48.670Z,21.8
2017-10-06T02:18:50.800Z,21.8
2017-10-06T02:19:52.930Z,21.8
2017-10-06T02:20:54.391Z,21.9
2017-10-06T02:21:56.523Z,21.8
2017-10-06T02:22:57.982Z,21.8
2017-10-06T02:23:59.758Z,21.9
2017-10-06T02:25:01.888Z,21.8
2017-10-06T02:26:03.682Z,21.8
2017-10-06T02:27:05.145Z,21.7
2017-10-06T02:28:06.600Z,21.8
2017-10-06T02:29:07.706Z,21.8
2017-10-06T02:30:09.838Z,21.8
2017-10-06T02:31:12.012Z,21.8
2017-10-06T02:32:13.466Z,21.7
2017-10-06T02:33:15.239Z,21.8
2017-10-06T02:34:17.370Z,21.8
2017-10-06T02:35:19.167Z,21.8
2017-10-06T02:36:20.626Z,21.8
2017-10-06T02:37:22.421Z,21.8
2017-10-06T02:38:24.219Z,21.9
2017-10-06T02:39:26.017Z,21.8
2017-10-06T02:40:28.149Z,21.8
2017-10-06T02:41:30.278Z,21.8
2017-10-06T02:42:32.073Z,21.8
2017-10-06T02:43:33.846Z,21.8
2017-10-06T02:44:35.984Z,21.8
2017-10-06T02:45:37.754Z,21.8
2017-10-06T02:46:39.882Z,21.8
2017-10-06T02:47:42.013Z,21.8
2017-10-06T02:48:43.473Z,21.7
2017-10-06T02:49:45.604Z,21.7
2017-10-06T02:50:47.732Z,21.8
2017-10-06T02:51:48.838Z,21.8
2017-10-06T02:52:50.637Z,21.7
2017-10-06T02:53:52.765Z,21.8
2017-10-06T02:54:53.869Z,21.7
2017-10-06T02:55:55.344Z,21.7
2017-10-06T02:56:57.474Z,21.8
2017-10-06T02:57:59.618Z,21.7
2017-10-06T02:59:01.394Z,21.8
2017-10-06T03:00:03.165Z,21.7
2017-10-06T03:01:04.626Z,21.7
2017-10-06T03:02:06.097Z,21.8
2017-10-06T03:03:07.892Z,21.7
2017-10-06T03:04:09.689Z,21.7
2017-10-06T03:05:11.820Z,21.7
2017-10-06T03:06:13.616Z,21.7
2017-10-06T03:07:15.747Z,21.7
2017-10-06T03:08:17.880Z,21.7
2017-10-06T03:09:19.341Z,21.7
2017-10-06T03:10:21.138Z,21.7
2017-10-06T03:11:23.268Z,21.7
2017-10-06T03:12:25.400Z,21.7
2017-10-06T03:13:26.860Z,21.7
2017-10-06T03:14:28.296Z,21.7
2017-10-06T03:15:30.091Z,21.7
2017-10-06T03:16:32.220Z,21.7
2017-10-06T03:17:34.349Z,21.7
2017-10-06T03:18:36.479Z,21.7
2017-10-06T03:19:37.919Z,21.7
2017-10-06T03:20:39.381Z,21.8
2017-10-06T03:21:40.844Z,21.7
2017-10-06T03:22:42.974Z,21.7
2017-10-06T03:23:45.106Z,21.7
2017-10-06T03:24:47.235Z,21.7
2017-10-06T03:25:49.029Z,21.7
2017-10-06T03:26:50.824Z,21.7
2017-10-06T03:27:52.952Z,21.7
2017-10-06T03:28:54.390Z,21.6
2017-10-06T03:29:56.184Z,21.7
2017-10-06T03:30:57.982Z,21.7
2017-10-06T03:31:59.757Z,21.6
2017-10-06T03:33:01.550Z,21.7
2017-10-06T03:34:02.326Z,21.7
2017-10-06T03:35:04.117Z,21.8
2017-10-06T03:36:05.912Z,21.7
2017-10-06T03:37:08.045Z,21.7
2017-10-06T03:38:09.838Z,21.7
2017-10-06T03:39:11.612Z,21.7
2017-10-06T03:40:13.406Z,21.7
2017-10-06T03:41:15.222Z,21.7
2017-10-06T03:42:16.657Z,21.7
2017-10-06T03:43:18.095Z,21.7
2017-10-06T03:44:19.535Z,21.7
2017-10-06T03:45:20.662Z,21.7
2017-10-06T03:46:21.764Z,21.7
2017-10-06T03:47:22.866Z,21.7
2017-10-06T03:48:24.661Z,21.7
2017-10-06T03:49:26.789Z,21.7
2017-10-06T03:50:27.559Z,21.7
2017-10-06T03:51:29.331Z,21.7
2017-10-06T03:52:31.127Z,21.8
2017-10-06T03:53:32.923Z,21.7
2017-10-06T03:54:34.738Z,21.7
2017-10-06T03:55:36.869Z,21.8
2017-10-06T03:56:38.309Z,21.7
2017-10-06T03:57:40.104Z,21.7
2017-10-06T03:58:42.234Z,21.7
2017-10-06T03:59:44.071Z,21.7
2017-10-06T04:00:45.513Z,21.7
2017-10-06T04:01:47.310Z,21.7
2017-10-06T04:02:49.439Z,21.7
2017-10-06T04:03:50.569Z,21.7
2017-10-06T04:04:52.700Z,21.6
2017-10-06T04:05:54.158Z,21.7
2017-10-06T04:06:55.952Z,21.6
2017-10-06T04:07:58.131Z,21.7
2017-10-06T04:08:59.570Z,21.7
2017-10-06T04:10:01.701Z,21.7
2017-10-06T04:11:03.164Z,21.7
2017-10-06T04:12:04.269Z,21.7
2017-10-06T04:13:05.040Z,21.7
2017-10-06T04:14:06.838Z,21.6
2017-10-06T04:15:08.606Z,21.7
2017-10-06T04:16:10.736Z,21.7
2017-10-06T04:17:12.175Z,21.6
2017-10-06T04:18:14.305Z,21.7
2017-10-06T04:19:16.437Z,21.7
2017-10-06T04:20:18.568Z,21.7
2017-10-06T04:21:20.028Z,21.7
2017-10-06T04:22:21.489Z,21.7
2017-10-06T04:23:23.298Z,21.7
2017-10-06T04:24:25.426Z,21.7
2017-10-06T04:25:27.558Z,21.7
2017-10-06T04:26:29.020Z,21.6
2017-10-06T04:27:31.152Z,21.6
2017-10-06T04:28:33.281Z,21.7
2017-10-06T04:29:34.721Z,21.8
2017-10-06T04:30:36.518Z,21.7
2017-10-06T04:31:38.315Z,21.7
2017-10-06T04:32:40.447Z,21.7
2017-10-06T04:33:42.576Z,21.6
2017-10-06T04:34:44.394Z,21.7
2017-10-06T04:35:46.220Z,21.6
2017-10-06T04:36:48.054Z,21.7
2017-10-06T04:37:49.479Z,21.7
2017-10-06T04:38:51.279Z,21.7
2017-10-06T04:39:52.752Z,21.7
2017-10-06T04:40:54.558Z,21.7
2017-10-06T04:41:56.689Z,21.6
2017-10-06T04:42:58.487Z,21.7
2017-10-06T04:43:59.948Z,21.6
2017-10-06T04:45:01.722Z,21.6
2017-10-06T04:46:03.158Z,21.7
2017-10-06T04:47:04.934Z,21.6
2017-10-06T04:48:06.729Z,21.7
2017-10-06T04:49:08.524Z,21.6
2017-10-06T04:50:10.321Z,21.7
2017-10-06T04:51:12.117Z,21.6
2017-10-06T04:52:13.913Z,21.7
2017-10-06T04:53:15.705Z,21.7
2017-10-06T04:54:17.499Z,21.6
2017-10-06T04:55:19.653Z,21.6
2017-10-06T04:56:20.735Z,21.7
2017-10-06T04:57:22.197Z,21.6
2017-10-06T04:58:23.979Z,21.6
2017-10-06T04:59:25.751Z,21.7
2017-10-06T05:00:27.550Z,21.5
2017-10-06T05:01:29.327Z,21.5
2017-10-06T05:02:30.778Z,21.6
2017-10-06T05:03:31.882Z,21.5
2017-10-06T05:04:33.318Z,21.6
2017-10-06T05:05:35.473Z,21.6
2017-10-06T05:06:37.246Z,21.6
2017-10-06T05:07:39.041Z,21.6
2017-10-06T05:08:40.836Z,21.5
2017-10-06T05:09:42.636Z,21.5
2017-10-06T05:10:44.771Z,21.5
2017-10-06T05:11:45.896Z,21.6
2017-10-06T05:12:47.020Z,21.7
2017-10-06T05:13:49.151Z,21.7
2017-10-06T05:14:50.950Z,21.5
2017-10-06T05:15:53.082Z,21.6
2017-10-06T05:16:55.211Z,21.6
2017-10-06T05:17:57.345Z,21.6
2017-10-06T05:18:58.834Z,21.7
2017-10-06T05:20:00.611Z,21.6
2017-10-06T05:21:02.407Z,21.5
2017-10-06T05:22:03.867Z,21.5
2017-10-06T05:23:05.663Z,21.6
2017-10-06T05:24:07.457Z,21.6
2017-10-06T05:25:08.922Z,21.6
2017-10-06T05:26:10.718Z,21.5
2017-10-06T05:27:11.820Z,21.7
2017-10-06T05:28:13.953Z,21.6
2017-10-06T05:29:15.414Z,21.5
2017-10-06T05:30:16.876Z,21.5
2017-10-06T05:31:19.013Z,21.5
2017-10-06T05:32:20.806Z,21.6
2017-10-06T05:33:22.243Z,21.7
2017-10-06T05:34:24.038Z,21.6
2017-10-06T05:35:25.835Z,21.6
2017-10-06T05:36:27.629Z,21.6
2017-10-06T05:37:29.423Z,21.6
2017-10-06T05:38:31.569Z,21.6
2017-10-06T05:39:33.701Z,21.5
2017-10-06T05:40:35.830Z,21.7
2017-10-06T05:41:37.960Z,21.6
2017-10-06T05:42:39.755Z,21.7
2017-10-06T05:43:41.216Z,21.5
2017-10-06T05:44:43.067Z,21.6
2017-10-06T05:45:44.502Z,21.6
2017-10-06T05:46:46.632Z,21.7
2017-10-06T05:47:48.095Z,21.7
2017-10-06T05:48:49.871Z,21.6
2017-10-06T05:49:51.665Z,21.7
2017-10-06T05:50:53.115Z,21.6
2017-10-06T05:51:54.554Z,21.7
2017-10-06T05:52:56.349Z,21.7
2017-10-06T05:53:57.792Z,21.7
2017-10-06T05:54:59.252Z,21.6
2017-10-06T05:56:01.387Z,21.6
2017-10-06T05:57:02.847Z,21.6
2017-10-06T05:58:04.623Z,21.7
2017-10-06T05:59:06.419Z,21.7
2017-10-06T06:00:07.852Z,21.7
2017-10-06T06:01:09.292Z,21.6
2017-10-06T06:02:11.421Z,21.6
2017-10-06T06:03:12.861Z,21.6
2017-10-06T06:04:14.302Z,21.6
2017-10-06T06:05:16.438Z,21.6
2017-10-06T06:06:18.580Z,21.7
2017-10-06T06:07:20.363Z,21.7
2017-10-06T06:08:22.495Z,21.7
2017-10-06T06:09:24.289Z,21.7
2017-10-06T06:10:26.417Z,21.6
2017-10-06T06:11:28.193Z,21.7
2017-10-06T06:12:29.991Z,21.6
2017-10-06T06:13:31.430Z,21.7
2017-10-06T06:14:33.561Z,21.7
2017-10-06T06:15:35.699Z,21.7
2017-10-06T06:16:37.831Z,21.7
2017-10-06T06:17:39.606Z,21.7
2017-10-06T06:18:41.047Z,21.7
2017-10-06T06:19:42.493Z,21.7
2017-10-06T06:20:43.626Z,21.6
2017-10-06T06:21:45.421Z,21.6
2017-10-06T06:22:47.199Z,21.7
2017-10-06T06:23:48.994Z,21.7
2017-10-06T06:24:50.792Z,21.7
2017-10-06T06:25:52.922Z,21.7
2017-10-06T06:26:54.727Z,21.6
2017-10-06T06:27:56.183Z,21.7
2017-10-06T06:28:57.958Z,21.7
2017-10-06T06:29:59.404Z,21.7
2017-10-06T06:31:00.848Z,21.6
2017-10-06T06:32:02.983Z,21.6
2017-10-06T06:33:04.760Z,21.6
2017-10-06T06:34:06.895Z,21.6
2017-10-06T06:35:08.354Z,21.7
2017-10-06T06:36:10.482Z,21.6
2017-10-06T06:37:12.620Z,21.7
2017-10-06T06:38:14.059Z,21.6
2017-10-06T06:39:16.189Z,21.6
2017-10-06T06:40:18.320Z,21.6
2017-10-06T06:41:19.757Z,21.6
2017-10-06T06:42:21.553Z,21.7
2017-10-06T06:43:22.682Z,21.7
2017-10-06T06:44:24.475Z,21.7
2017-10-06T06:45:25.939Z,21.7
2017-10-06T06:46:28.070Z,21.7
2017-10-06T06:47:29.840Z,21.6
2017-10-06T06:48:31.634Z,21.7
2017-10-06T06:49:33.431Z,21.7
2017-10-06T06:50:35.228Z,21.6
2017-10-06T06:51:37.029Z,21.6
2017-10-06T06:52:38.473Z,21.7
2017-10-06T06:53:39.908Z,21.6
2017-10-06T06:54:41.681Z,21.7
2017-10-06T06:55:43.148Z,21.6
2017-10-06T06:56:44.253Z,21.7
2017-10-06T06:57:46.024Z,21.6
2017-10-06T06:58:47.157Z,21.7
2017-10-06T06:59:48.959Z,21.7
2017-10-06T07:00:50.760Z,21.6
2017-10-06T07:01:52.586Z,21.6
2017-10-06T07:02:54.720Z,21.6
2017-10-06T07:03:56.850Z,21.7
2017-10-06T07:04:58.982Z,21.6
2017-10-06T07:06:00.111Z,21.7
2017-10-06T07:07:01.907Z,21.6
2017-10-06T07:08:03.703Z,21.7
2017-10-06T07:09:05.836Z,21.7
2017-10-06T07:10:07.297Z,21.6
2017-10-06T07:11:09.078Z,21.6
2017-10-06T07:12:09.855Z,21.7
2017-10-06T07:13:11.314Z,21.7
2017-10-06T07:14:12.754Z,21.7
2017-10-06T07:15:14.532Z,21.7
2017-10-06T07:16:15.993Z,21.6
2017-10-06T07:17:18.126Z,21.6
2017-10-06T07:18:19.926Z,21.7
2017-10-06T07:19:22.057Z,21.7
2017-10-06T07:20:23.857Z,21.6
2017-10-06T07:21:25.653Z,21.6
2017-10-06T07:22:27.784Z,21.7
2017-10-06T07:23:29.559Z,21.6
2017-10-06T07:24:30.997Z,21.7
2017-10-06T07:25:33.128Z,21.6
2017-10-06T07:26:34.901Z,21.7
2017-10-06T07:27:36.342Z,21.7
2017-10-06T07:28:38.135Z,21.6
2017-10-06T07:29:39.574Z,21.6
2017-10-06T07:30:41.014Z,21.6
2017-10-06T07:31:42.809Z,21.6
2017-10-06T07:32:44.603Z,21.6
2017-10-06T07:33:46.382Z,21.7
2017-10-06T07:34:48.151Z,21.7
2017-10-06T07:35:49.948Z,21.8
2017-10-06T07:36:51.747Z,21.7
2017-10-06T07:37:53.878Z,21.7
2017-10-06T07:38:55.320Z,21.8
2017-10-06T07:39:57.118Z,21.7
2017-10-06T07:40:58.226Z,21.7
2017-10-06T07:42:00.355Z,21.8
2017-10-06T07:43:01.484Z,21.7
2017-10-06T07:44:02.950Z,21.7
2017-10-06T07:45:04.724Z,21.7
2017-10-06T07:46:06.524Z,21.8
2017-10-06T07:47:08.318Z,21.7
2017-10-06T07:48:09.778Z,21.7
2017-10-06T07:49:11.240Z,21.7
2017-10-06T07:50:13.040Z,21.7
2017-10-06T07:51:14.838Z,21.7
2017-10-06T07:52:16.298Z,21.7
2017-10-06T07:53:18.069Z,21.7
2017-10-06T07:54:19.201Z,21.7
2017-10-06T07:55:20.992Z,21.7
2017-10-06T07:56:22.438Z,21.7
2017-10-06T07:57:24.571Z,21.7
2017-10-06T07:58:25.697Z,21.7
2017-10-06T07:59:27.494Z,21.7
2017-10-06T08:00:29.296Z,21.7
2017-10-06T08:01:31.425Z,21.7
2017-10-06T08:02:32.869Z,21.7
2017-10-06T08:03:35.001Z,21.7
2017-10-06T08:04:36.464Z,21.7
2017-10-06T08:05:38.594Z,21.7
2017-10-06T08:06:40.389Z,21.8
2017-10-06T08:07:42.517Z,21.7
2017-10-06T08:08:44.760Z,21.7
2017-10-06T08:09:45.888Z,21.7
2017-10-06T08:10:47.682Z,21.8
2017-10-06T08:11:49.121Z,21.7
2017-10-06T08:12:50.582Z,21.7
2017-10-06T08:13:52.715Z,21.8
2017-10-06T08:14:54.510Z,21.8
2017-10-06T08:15:55.975Z,21.8
2017-10-06T08:16:57.774Z,21.8
2017-10-06T08:17:59.568Z,21.8
2017-10-06T08:19:01.361Z,21.7
2017-10-06T08:20:03.497Z,21.8
2017-10-06T08:21:04.960Z,21.7
2017-10-06T08:22:06.761Z,21.8
2017-10-06T08:23:08.204Z,21.8
2017-10-06T08:24:10.333Z,21.8
2017-10-06T08:25:12.129Z,21.8
2017-10-06T08:26:14.259Z,21.8
2017-10-06T08:27:15.699Z,21.8
2017-10-06T08:28:16.468Z,21.8
2017-10-06T08:29:18.265Z,21.8
2017-10-06T08:30:20.067Z,21.8
2017-10-06T08:31:21.862Z,21.7
2017-10-06T08:32:22.633Z,21.8
2017-10-06T08:33:24.073Z,21.8
2017-10-06T08:34:25.873Z,21.9
2017-10-06T08:35:27.342Z,21.8
2017-10-06T08:36:29.473Z,21.9
2017-10-06T08:37:31.271Z,21.9
2017-10-06T08:38:33.402Z,21.9
2017-10-06T08:39:35.301Z,21.9
2017-10-06T08:40:37.074Z,21.8
2017-10-06T08:41:38.548Z,21.8
2017-10-06T08:42:40.334Z,21.8
2017-10-06T08:43:41.814Z,21.9
2017-10-06T08:44:43.607Z,21.9
2017-10-06T08:45:45.069Z,21.8
2017-10-06T08:46:46.847Z,21.9
2017-10-06T08:47:48.642Z,22
2017-10-06T08:48:50.440Z,21.9
2017-10-06T08:49:52.239Z,21.9
2017-10-06T08:50:54.371Z,21.9
2017-10-06T08:51:56.169Z,21.9
2017-10-06T08:52:57.965Z,21.9
2017-10-06T08:54:00.098Z,21.9
2017-10-06T08:55:01.898Z,21.9
2017-10-06T08:56:03.692Z,21.9
2017-10-06T08:57:05.825Z,21.9
2017-10-06T08:58:06.930Z,22
2017-10-06T08:59:08.373Z,21.9
2017-10-06T09:00:10.501Z,21.9
2017-10-06T09:01:12.275Z,21.9
2017-10-06T09:02:14.073Z,21.9
2017-10-06T09:03:16.206Z,21.9
2017-10-06T09:04:18.339Z,21.8
2017-10-06T09:05:20.135Z,21.9
2017-10-06T09:06:21.930Z,21.9
2017-10-06T09:07:23.366Z,22
2017-10-06T09:08:24.828Z,21.9
2017-10-06T09:09:26.273Z,21.9
2017-10-06T09:10:28.504Z,21.9
2017-10-06T09:11:30.300Z,21.9
2017-10-06T09:12:32.079Z,21.9
2017-10-06T09:13:33.548Z,21.9
2017-10-06T09:14:34.990Z,21.9
2017-10-06T09:15:36.455Z,21.9
2017-10-06T09:16:37.556Z,21.9
2017-10-06T09:17:39.353Z,21.9
2017-10-06T09:18:41.150Z,21.9
2017-10-06T09:19:42.617Z,21.9
2017-10-06T09:20:44.415Z,21.9
2017-10-06T09:21:45.544Z,22
2017-10-06T09:22:47.007Z,21.9
2017-10-06T09:23:49.141Z,21.9
2017-10-06T09:24:51.273Z,21.9
2017-10-06T09:25:53.412Z,21.9
2017-10-06T09:26:54.853Z,21.9
2017-10-06T09:27:56.997Z,21.9
2017-10-06T09:28:59.127Z,21.9
2017-10-06T09:30:01.259Z,21.9
2017-10-06T09:31:03.394Z,21.9
2017-10-06T09:32:05.186Z,21.9
2017-10-06T09:33:06.648Z,21.9
2017-10-06T09:34:08.443Z,21.9
2017-10-06T09:35:10.218Z,21.9
2017-10-06T09:36:12.018Z,21.9
2017-10-06T09:37:13.478Z,21.9
2017-10-06T09:38:14.916Z,21.9
2017-10-06T09:39:16.716Z,21.9
2017-10-06T09:40:18.514Z,21.9
2017-10-06T09:41:20.312Z,21.9
2017-10-06T09:42:21.443Z,21.9
2017-10-06T09:43:22.889Z,21.9
2017-10-06T09:44:25.022Z,21.9
2017-10-06T09:45:27.157Z,22
2017-10-06T09:46:28.958Z,21.9
2017-10-06T09:47:31.092Z,22
2017-10-06T09:48:32.865Z,22
2017-10-06T09:49:33.976Z,22
2017-10-06T09:50:35.084Z,22
2017-10-06T09:51:36.882Z,22
2017-10-06T09:52:38.657Z,22
2017-10-06T09:53:40.789Z,22
2017-10-06T09:54:42.586Z,22
2017-10-06T09:55:44.740Z,22
2017-10-06T09:56:46.533Z,22.1
2017-10-06T09:57:48.330Z,21.9
2017-10-06T09:58:50.126Z,22
2017-10-06T09:59:51.262Z,22.1
2017-10-06T10:00:52.727Z,22.1
2017-10-06T10:01:54.856Z,22.1
2017-10-06T10:02:56.655Z,22.1
2017-10-06T10:03:58.448Z,22
2017-10-06T10:05:00.252Z,22.1
2017-10-06T10:06:02.049Z,22.1
2017-10-06T10:07:03.845Z,22.1
2017-10-06T10:08:05.624Z,22.2
2017-10-06T10:09:07.068Z,22.1
2017-10-06T10:10:08.175Z,22.2
2017-10-06T10:11:09.943Z,22.2
2017-10-06T10:12:12.074Z,22.2
2017-10-06T10:13:13.849Z,22.1
2017-10-06T10:14:15.981Z,22.2
2017-10-06T10:15:17.784Z,22.2
2017-10-06T10:16:19.560Z,22.2
2017-10-06T10:17:21.690Z,22.2
2017-10-06T10:18:23.470Z,22.1
2017-10-06T10:19:24.936Z,22.2
2017-10-06T10:20:27.079Z,22.1
2017-10-06T10:21:28.928Z,22.1
2017-10-06T10:22:30.387Z,22.1
2017-10-06T10:23:32.184Z,22.1
2017-10-06T10:24:33.998Z,22.1
2017-10-06T10:25:36.126Z,22.1
2017-10-06T10:26:37.584Z,22.1
2017-10-06T10:27:39.385Z,22.1
2017-10-06T10:28:40.845Z,22.1
2017-10-06T10:29:42.644Z,22.1
2017-10-06T10:30:44.084Z,22.1
2017-10-06T10:31:45.214Z,22.1
2017-10-06T10:32:46.655Z,22.1
2017-10-06T10:33:47.761Z,22
2017-10-06T10:34:49.586Z,22.1
2017-10-06T10:35:51.363Z,22
2017-10-06T10:36:53.493Z,22.1
2017-10-06T10:37:54.937Z,22.1
2017-10-06T10:38:56.376Z,22.1
2017-10-06T10:39:57.482Z,22.1
2017-10-06T10:40:58.920Z,22
2017-10-06T10:42:00.386Z,22.1
2017-10-06T10:43:01.827Z,22.1
2017-10-06T10:44:03.624Z,22.1
2017-10-06T10:45:05.424Z,22.1
2017-10-06T10:46:07.226Z,22.1
2017-10-06T10:47:08.765Z,22.1
2017-10-06T10:48:10.538Z,22.1
2017-10-06T10:49:11.978Z,22.2
2017-10-06T10:50:13.774Z,22.1
2017-10-06T10:51:15.244Z,22.2
2017-10-06T10:52:17.041Z,22.2
2017-10-06T10:53:19.177Z,22.2
2017-10-06T10:54:20.640Z,22.2
2017-10-06T10:55:22.441Z,22.3
2017-10-06T10:56:24.214Z,22.3
2017-10-06T10:57:25.349Z,22.2
2017-10-06T10:58:27.150Z,22.3
2017-10-06T10:59:29.282Z,22.3
2017-10-06T11:00:31.061Z,22.3
2017-10-06T11:01:32.866Z,22.3
2017-10-06T11:02:34.659Z,22.2
2017-10-06T11:03:36.120Z,22.2
2017-10-06T11:04:37.896Z,22.1
2017-10-06T11:05:39.695Z,22.2
2017-10-06T11:06:41.469Z,22.2
2017-10-06T11:07:43.247Z,22.2
2017-10-06T11:08:45.377Z,22.2
2017-10-06T11:09:46.823Z,22.2
2017-10-06T11:10:48.596Z,22.2
2017-10-06T11:11:49.702Z,22.2
2017-10-06T11:12:51.834Z,22.2
2017-10-06T11:13:53.610Z,22.2
2017-10-06T11:14:55.404Z,22.2
2017-10-06T11:15:57.535Z,22.1
2017-10-06T11:16:59.342Z,22.2
2017-10-06T11:18:01.135Z,22.1
2017-10-06T11:19:03.267Z,22.1
2017-10-06T11:20:04.710Z,22.1
2017-10-06T11:21:06.173Z,22.1
2017-10-06T11:22:07.614Z,22.1
2017-10-06T11:23:09.411Z,22.1
2017-10-06T11:24:11.547Z,22.1
2017-10-06T11:25:13.682Z,22.1
2017-10-06T11:26:15.455Z,22.1
2017-10-06T11:27:17.252Z,22
2017-10-06T11:28:18.690Z,22.1
2017-10-06T11:29:20.488Z,22
2017-10-06T11:30:22.270Z,22
2017-10-06T11:31:24.401Z,22
2017-10-06T11:32:26.198Z,22
2017-10-06T11:33:27.998Z,22
2017-10-06T11:34:29.794Z,22
2017-10-06T11:35:31.924Z,22
2017-10-06T11:36:33.719Z,22
2017-10-06T11:37:35.179Z,22
2017-10-06T11:38:37.077Z,22
2017-10-06T11:39:38.521Z,22
2017-10-06T11:40:40.317Z,22
2017-10-06T11:41:41.087Z,22
2017-10-06T11:42:42.218Z,22
2017-10-06T11:43:43.681Z,21.9
2017-10-06T11:44:45.119Z,22
2017-10-06T11:45:46.220Z,21.9
2017-10-06T11:46:47.326Z,22
2017-10-06T11:47:48.430Z,21.9
2017-10-06T11:48:50.226Z,21.9
2017-10-06T11:49:51.665Z,22
2017-10-06T11:50:53.799Z,22
2017-10-06T11:51:55.254Z,22
2017-10-06T11:52:57.385Z,22
2017-10-06T11:53:59.183Z,22
2017-10-06T11:55:00.979Z,21.9
2017-10-06T11:56:03.112Z,22
2017-10-06T11:57:05.242Z,22
2017-10-06T11:58:07.039Z,22
2017-10-06T11:59:08.164Z,22
2017-10-06T12:00:10.302Z,22
2017-10-06T12:01:11.758Z,22
2017-10-06T12:02:13.556Z,22
2017-10-06T12:03:15.357Z,22.1
2017-10-06T12:04:17.487Z,22
2017-10-06T12:05:18.951Z,22
2017-10-06T12:06:20.751Z,21.9
2017-10-06T12:07:22.882Z,22.1
2017-10-06T12:08:24.322Z,22.1
2017-10-06T12:09:25.430Z,22.1
2017-10-06T12:10:27.229Z,22.1
2017-10-06T12:11:29.027Z,22
2017-10-06T12:12:30.821Z,22.1
2017-10-06T12:13:32.285Z,22.1
2017-10-06T12:14:34.417Z,22.1
2017-10-06T12:15:36.551Z,22.1
2017-10-06T12:16:37.991Z,22.1
2017-10-06T12:17:39.791Z,22.1
2017-10-06T12:18:41.922Z,22.2
2017-10-06T12:19:43.713Z,22.2
2017-10-06T12:20:45.153Z,22.1
2017-10-06T12:21:46.928Z,22.1
2017-10-06T12:22:48.709Z,22.2
2017-10-06T12:23:50.509Z,22.2
2017-10-06T12:24:52.644Z,22.2
2017-10-06T12:25:54.775Z,22.2
2017-10-06T12:26:56.571Z,22.2
2017-10-06T12:27:58.374Z,22.1
2017-10-06T12:29:00.508Z,22.2
2017-10-06T12:30:02.641Z,22.2
2017-10-06T12:31:03.416Z,22.2
2017-10-06T12:32:05.216Z,22.2
2017-10-06T12:33:06.992Z,22.2
2017-10-06T12:34:09.126Z,22.2
2017-10-06T12:35:10.588Z,22.1
2017-10-06T12:36:12.388Z,22.2
2017-10-06T12:37:13.829Z,22.2
2017-10-06T12:38:14.941Z,22.2
2017-10-06T12:39:16.740Z,22.2
2017-10-06T12:40:18.204Z,22.2
2017-10-06T12:41:19.308Z,22.2
2017-10-06T12:42:21.087Z,22.2
2017-10-06T12:43:23.219Z,22.2
2017-10-06T12:44:24.667Z,22.2
2017-10-06T12:45:26.796Z,22.2
2017-10-06T12:46:28.258Z,22.1
2017-10-06T12:47:30.055Z,22.2
2017-10-06T12:48:31.502Z,22.2
2017-10-06T12:49:32.609Z,22.2
2017-10-06T12:50:34.408Z,22.2
2017-10-06T12:51:36.210Z,22.2
2017-10-06T12:52:37.319Z,22.3
2017-10-06T12:53:38.760Z,22.3
2017-10-06T12:54:40.205Z,22.2
2017-10-06T12:55:42.339Z,22.3
2017-10-06T12:56:44.116Z,22.4
2017-10-06T12:57:45.555Z,22.3
2017-10-06T12:58:47.000Z,22.3
2017-10-06T12:59:49.131Z,22.3
2017-10-06T13:00:50.240Z,22.3
2017-10-06T13:01:52.013Z,22.2
2017-10-06T13:02:54.145Z,22.3
2017-10-06T13:03:55.943Z,22.3
2017-10-06T13:04:57.716Z,22.3
2017-10-06T13:05:59.852Z,22.2
2017-10-06T13:07:00.958Z,22.3
2017-10-06T13:08:02.394Z,22.3
2017-10-06T13:09:04.527Z,22.3
2017-10-06T13:10:06.325Z,22.3
2017-10-06T13:11:08.123Z,22.3
2017-10-06T13:12:09.232Z,22.3
2017-10-06T13:13:11.365Z,22.2
2017-10-06T13:14:12.810Z,22.3
2017-10-06T13:15:14.606Z,22.3
2017-10-06T13:16:16.405Z,22.2
2017-10-06T13:17:18.203Z,22.2
2017-10-06T13:18:20.335Z,22.3
2017-10-06T13:19:21.443Z,22.3
2017-10-06T13:20:22.885Z,22.2
2017-10-06T13:21:24.678Z,22.2
2017-10-06T13:22:26.477Z,22.3
2017-10-06T13:23:28.273Z,22.2
2017-10-06T13:24:30.405Z,22.2
2017-10-06T13:25:32.210Z,22.2
2017-10-06T13:26:34.055Z,22.2
2017-10-06T13:27:35.499Z,22.1
2017-10-06T13:28:37.630Z,22.3
2017-10-06T13:29:39.097Z,22.2
2017-10-06T13:30:40.560Z,22.2
2017-10-06T13:31:41.664Z,22.2
2017-10-06T13:32:43.457Z,22.2
2017-10-06T13:33:45.254Z,22.2
2017-10-06T13:34:46.726Z,22.2
2017-10-06T13:35:47.855Z,22.2
2017-10-06T13:36:49.649Z,22.3
2017-10-06T13:37:51.427Z,22.3
2017-10-06T13:38:53.559Z,22.3
2017-10-06T13:39:55.360Z,22.2
2017-10-06T13:40:56.797Z,22.3
2017-10-06T13:41:57.901Z,22.2
2017-10-06T13:42:59.364Z,22.3
2017-10-06T13:44:01.163Z,22.3
2017-10-06T13:45:02.608Z,22.2
2017-10-06T13:46:04.049Z,22.3
2017-10-06T13:47:06.186Z,22.3
2017-10-06T13:48:08.316Z,22.3